Time;durP1;ratioP1;P1;durP2;ratioP2;P2;SDS_P1;SDS_P2;PMS_P1;PMS_P2;Temp;Humidity;BMP_temperature;BMP_pressure;BME280_temperature;BME280_humidity;BME280_pressure;Samples;Min_cycle;Max_cycle;Signal;HPM_P1;HPM_P2
2023/06/07 00:01:47;;;;;;;4.68;3.25;;;14.90;99.90;;;;;;5051828;28;20214;-60
2023/06/07 00:04:14;;;;;;;3.20;2.50;;;14.90;99.90;;;;;;5051968;28;20220;-60
2023/06/07 00:06:42;;;;;;;4.63;2.90;;;14.80;99.90;;;;;;5051695;28;20597;-59
2023/06/07 00:09:09;;;;;;;5.97;2.90;;;14.80;99.90;;;;;;5051760;28;20213;-59
2023/06/07 00:11:36;;;;;;;3.83;3.00;;;14.80;99.90;;;;;;5050890;28;20315;-59
2023/06/07 00:14:03;;;;;;;3.33;3.00;;;14.70;99.90;;;;;;5051635;28;20217;-59
2023/06/07 00:16:32;;;;;;;3.20;2.87;;;14.70;99.90;;;;;;5051028;28;20256;-59
2023/06/07 00:19:01;;;;;;;3.53;2.50;;;14.60;99.90;;;;;;5051212;28;20229;-58
2023/06/07 00:21:28;;;;;;;4.77;3.40;;;14.60;99.90;;;;;;5051149;28;20213;-59
2023/06/07 00:23:56;;;;;;;3.08;2.63;;;14.50;99.90;;;;;;5051452;28;20271;-59
2023/06/07 00:26:22;;;;;;;6.57;3.10;;;14.50;99.90;;;;;;5051009;28;20260;-60
2023/06/07 00:28:49;;;;;;;3.10;2.60;;;14.50;99.90;;;;;;5051319;28;20585;-59
2023/06/07 00:31:16;;;;;;;3.37;2.93;;;14.50;99.90;;;;;;5051109;28;20205;-59
2023/06/07 00:33:42;;;;;;;3.45;2.97;;;14.50;99.90;;;;;;5050952;28;20273;-60
2023/06/07 00:36:09;;;;;;;3.63;2.85;;;14.50;99.90;;;;;;5050784;28;20229;-60
2023/06/07 00:38:36;;;;;;;3.25;2.95;;;14.40;99.90;;;;;;5051353;28;20201;-60
2023/06/07 00:41:04;;;;;;;3.20;2.88;;;14.30;99.90;;;;;;5051105;28;20208;-60
2023/06/07 00:43:31;;;;;;;3.27;2.90;;;14.20;99.90;;;;;;5051082;28;20307;-60
2023/06/07 00:45:58;;;;;;;4.23;3.10;;;14.20;99.90;;;;;;5050546;28;20230;-60
2023/06/07 00:48:27;;;;;;;3.97;3.03;;;14.10;99.90;;;;;;5050916;28;20201;-60
2023/06/07 00:50:53;;;;;;;3.20;2.90;;;14.10;99.90;;;;;;5050841;28;20255;-60
2023/06/07 00:53:21;;;;;;;2.90;2.67;;;14.00;99.90;;;;;;5051089;28;20209;-59
2023/06/07 00:55:48;;;;;;;4.30;3.03;;;14.00;99.90;;;;;;5050583;28;20635;-60
2023/06/07 00:58:16;;;;;;;4.27;3.10;;;14.00;99.90;;;;;;5050904;28;20205;-60
2023/06/07 01:00:43;;;;;;;6.63;3.20;;;14.00;99.90;;;;;;5051339;28;20209;-59
2023/06/07 01:03:11;;;;;;;4.00;3.13;;;13.90;99.90;;;;;;5050607;28;20671;-59
2023/06/07 01:05:37;;;;;;;3.63;3.10;;;13.90;99.90;;;;;;5050961;28;20406;-59
2023/06/07 01:08:04;;;;;;;3.30;3.00;;;14.00;99.90;;;;;;5050914;28;20300;-59
2023/06/07 01:10:31;;;;;;;5.87;3.40;;;14.00;99.90;;;;;;5050845;28;20205;-60
2023/06/07 01:13:03;;;;;;;3.40;3.10;;;14.00;99.90;;;;;;5051054;28;20255;-59
2023/06/07 01:15:35;;;;;;;3.40;3.10;;;14.10;99.90;;;;;;5051132;28;20299;-60
2023/06/07 01:18:02;;;;;;;3.80;3.10;;;14.00;99.90;;;;;;5051131;28;20619;-60
2023/06/07 01:20:30;;;;;;;3.20;2.87;;;14.10;99.90;;;;;;5051551;28;20727;-59
2023/06/07 01:23:00;;;;;;;3.73;2.93;;;14.10;99.90;;;;;;5054093;28;20228;-60
2023/06/07 01:25:28;;;;;;;4.07;3.07;;;14.00;99.90;;;;;;5055857;28;20409;-60
2023/06/07 01:27:58;;;;;;;4.70;3.50;;;14.00;99.90;;;;;;5055485;28;20202;-60
2023/06/07 01:30:25;;;;;;;3.90;2.90;;;14.00;99.90;;;;;;5055571;28;20286;-60
2023/06/07 01:32:53;;;;;;;4.30;2.83;;;14.00;99.90;;;;;;5054927;28;20206;-59
2023/06/07 01:35:22;;;;;;;3.20;2.90;;;14.00;99.90;;;;;;5054781;28;20245;-59
2023/06/07 01:37:49;;;;;;;3.10;2.80;;;14.10;99.90;;;;;;5054925;28;20212;-59
2023/06/07 01:40:16;;;;;;;4.60;2.97;;;14.10;99.90;;;;;;5054769;28;20663;-59
2023/06/07 01:42:46;;;;;;;4.43;3.07;;;14.10;99.90;;;;;;5054842;28;20221;-59
2023/06/07 01:45:13;;;;;;;4.73;3.07;;;14.10;99.90;;;;;;5054526;28;20308;-59
2023/06/07 01:47:40;;;;;;;3.03;2.73;;;14.10;99.90;;;;;;5054226;28;20217;-59
2023/06/07 01:50:09;;;;;;;3.40;3.10;;;14.10;99.90;;;;;;5054516;28;20209;-60
2023/06/07 01:52:35;;;;;;;4.47;3.30;;;14.10;99.90;;;;;;5054147;28;20202;-59
2023/06/07 01:55:04;;;;;;;4.23;3.10;;;14.10;99.90;;;;;;5054241;28;20251;-59
2023/06/07 01:57:38;;;;;;;3.80;3.30;;;14.00;99.90;;;;;;5053773;28;20247;-59
2023/06/07 02:00:16;;;;;;;3.07;2.80;;;14.00;99.90;;;;;;5054358;28;20274;-59
2023/06/07 02:02:49;;;;;;;4.40;3.53;;;13.90;99.90;;;;;;5054282;28;20225;-58
2023/06/07 02:05:19;;;;;;;3.53;3.13;;;13.90;99.90;;;;;;5054043;28;20212;-59
2023/06/07 02:07:49;;;;;;;3.67;3.10;;;13.80;99.90;;;;;;5053571;28;20251;-59
2023/06/07 02:10:20;;;;;;;3.57;3.23;;;13.70;99.90;;;;;;5054021;28;20289;-58
2023/06/07 02:12:47;;;;;;;4.70;3.50;;;13.60;99.90;;;;;;5054033;28;20749;-59
2023/06/07 02:15:16;;;;;;;3.50;2.90;;;13.60;99.90;;;;;;5053677;28;20205;-60
2023/06/07 02:17:57;;;;;;;3.50;3.20;;;13.50;99.90;;;;;;5053808;28;20213;-59
2023/06/07 02:20:25;;;;;;;3.63;3.30;;;13.50;99.90;;;;;;5053913;28;20213;-59
2023/06/07 02:22:51;;;;;;;5.03;3.07;;;13.50;99.90;;;;;;5054010;28;20573;-59
2023/06/07 02:25:18;;;;;;;4.07;3.40;;;13.50;99.90;;;;;;5053818;28;20297;-59
2023/06/07 02:27:45;;;;;;;4.37;3.43;;;13.60;99.90;;;;;;5053824;28;20259;-59
2023/06/07 02:30:12;;;;;;;4.33;3.40;;;13.60;99.90;;;;;;5054013;28;20212;-59
2023/06/07 02:32:40;;;;;;;4.63;3.40;;;13.60;99.90;;;;;;5053244;28;20632;-59
2023/06/07 02:35:08;;;;;;;4.70;3.30;;;13.50;99.90;;;;;;5052476;28;20671;-59
2023/06/07 02:37:35;;;;;;;3.83;3.33;;;13.50;99.90;;;;;;5052928;28;20252;-58
2023/06/07 02:40:04;;;;;;;4.17;3.10;;;13.50;99.90;;;;;;5053175;28;20706;-59
2023/06/07 02:42:31;;;;;;;3.67;3.30;;;13.50;99.90;;;;;;5053181;28;20304;-59
2023/06/07 02:44:57;;;;;;;3.27;2.97;;;13.40;99.90;;;;;;5053185;28;20625;-59
2023/06/07 02:47:24;;;;;;;3.47;3.17;;;13.40;99.90;;;;;;5052609;28;20229;-59
2023/06/07 02:49:52;;;;;;;8.47;4.80;;;13.30;99.90;;;;;;5053216;28;20212;-59
2023/06/07 02:52:19;;;;;;;7.67;4.83;;;13.30;99.90;;;;;;5053418;28;20695;-60
2023/06/07 02:54:46;;;;;;;7.90;4.57;;;13.30;99.90;;;;;;5053664;28;20209;-60
2023/06/07 02:57:13;;;;;;;6.17;4.70;;;13.30;99.90;;;;;;5052611;28;20229;-59
2023/06/07 02:59:41;;;;;;;6.10;3.83;;;13.30;99.90;;;;;;5052994;28;20205;-59
2023/06/07 03:02:07;;;;;;;3.83;3.43;;;13.30;99.90;;;;;;5052953;28;20256;-59
2023/06/07 03:04:34;;;;;;;5.07;3.67;;;13.20;99.90;;;;;;5053111;28;20237;-59
2023/06/07 03:07:03;;;;;;;4.20;3.80;;;13.20;99.90;;;;;;5052660;28;20245;-58
2023/06/07 03:09:29;;;;;;;3.93;3.50;;;13.20;99.90;;;;;;5052940;28;20292;-59
2023/06/07 03:11:56;;;;;;;4.00;3.53;;;13.10;99.90;;;;;;5052805;28;20212;-60
2023/06/07 03:14:23;;;;;;;4.43;3.23;;;13.00;99.90;;;;;;5052446;28;20331;-59
2023/06/07 03:16:52;;;;;;;4.43;3.40;;;12.90;99.90;;;;;;5052263;28;20609;-59
2023/06/07 03:19:19;;;;;;;5.33;3.43;;;12.90;99.90;;;;;;5052989;28;20271;-59
2023/06/07 03:21:46;;;;;;;8.10;3.80;;;12.90;99.90;;;;;;5052947;28;20601;-59
2023/06/07 03:24:14;;;;;;;5.37;4.03;;;12.90;99.90;;;;;;5052551;28;20312;-59
2023/06/07 03:26:41;;;;;;;4.27;3.50;;;12.80;99.90;;;;;;5052137;28;20336;-59
2023/06/07 03:29:09;;;;;;;3.87;3.23;;;12.80;99.90;;;;;;5052619;28;20212;-60
2023/06/07 03:31:36;;;;;;;4.37;3.60;;;12.70;99.90;;;;;;5052667;28;20248;-60
2023/06/07 03:34:02;;;;;;;4.97;4.30;;;12.70;99.90;;;;;;5052586;28;20273;-60
2023/06/07 03:36:30;;;;;;;5.63;4.30;;;12.70;99.90;;;;;;5052122;28;20764;-60
2023/06/07 03:38:57;;;;;;;3.43;3.13;;;12.70;99.90;;;;;;5052267;28;20304;-59
2023/06/07 03:41:26;;;;;;;3.83;3.40;;;12.80;99.90;;;;;;5052216;28;20671;-59
2023/06/07 03:43:53;;;;;;;3.90;3.50;;;12.80;99.90;;;;;;5052115;28;20271;-60
2023/06/07 03:46:20;;;;;;;4.13;3.73;;;12.80;99.90;;;;;;5051907;28;20608;-59
2023/06/07 03:48:46;;;;;;;4.17;3.53;;;12.80;99.90;;;;;;5052644;28;20205;-60
2023/06/07 03:51:13;;;;;;;5.30;3.90;;;12.80;99.90;;;;;;5052118;28;20585;-59
2023/06/07 03:53:40;;;;;;;4.93;3.77;;;12.80;99.90;;;;;;5052160;28;20202;-59
2023/06/07 03:56:07;;;;;;;3.77;3.47;;;12.90;99.90;;;;;;5051553;28;20681;-60
2023/06/07 03:58:35;;;;;;;6.00;3.40;;;12.90;99.90;;;;;;5052379;28;20218;-60
2023/06/07 04:01:02;;;;;;;4.87;3.60;;;13.00;99.90;;;;;;5051892;28;20275;-58
2023/06/07 04:03:30;;;;;;;4.17;3.77;;;13.10;99.90;;;;;;5052011;28;20228;-59
2023/06/07 04:05:57;;;;;;;4.23;3.60;;;13.20;99.90;;;;;;5051582;28;20275;-59
2023/06/07 04:08:24;;;;;;;5.00;3.90;;;13.30;99.90;;;;;;5051541;28;20667;-59
2023/06/07 04:10:52;;;;;;;5.03;3.43;;;13.40;99.90;;;;;;5051534;28;20683;-59
2023/06/07 04:13:19;;;;;;;5.40;3.63;;;13.40;99.90;;;;;;5051913;28;20306;-59
2023/06/07 04:15:47;;;;;;;4.57;3.90;;;13.50;99.90;;;;;;5051378;28;20229;-59
2023/06/07 04:18:14;;;;;;;4.80;3.47;;;13.60;99.90;;;;;;5051464;28;20205;-59
2023/06/07 04:20:41;;;;;;;4.70;3.40;;;13.60;99.90;;;;;;5051561;28;20206;-60
2023/06/07 04:23:08;;;;;;;4.50;3.70;;;13.70;99.90;;;;;;5051229;28;20348;-59
2023/06/07 04:25:34;;;;;;;4.20;3.50;;;13.80;99.90;;;;;;5051456;28;20280;-60
2023/06/07 04:28:01;;;;;;;6.20;3.07;;;13.90;99.90;;;;;;5051062;28;20251;-60
2023/06/07 04:30:34;;;;;;;4.07;3.70;;;13.90;99.90;;;;;;5051542;28;20213;-59
2023/06/07 04:33:04;;;;;;;3.83;3.53;;;14.00;99.90;;;;;;5051603;28;20224;-60
2023/06/07 04:35:33;;;;;;;3.83;3.50;;;14.10;99.90;;;;;;5051722;28;20237;-60
2023/06/07 04:38:01;;;;;;;3.83;3.30;;;14.30;99.90;;;;;;5051189;28;20213;-60
2023/06/07 04:40:28;;;;;;;4.23;3.63;;;14.40;99.90;;;;;;5051272;28;20522;-60
2023/06/07 04:43:04;;;;;;;4.53;3.70;;;14.50;99.90;;;;;;5051135;28;20216;-60
2023/06/07 04:45:31;;;;;;;6.63;3.90;;;14.70;99.90;;;;;;5051018;28;20229;-59
2023/06/07 04:47:59;;;;;;;4.93;3.50;;;14.90;99.90;;;;;;5050730;28;20275;-60
2023/06/07 04:50:28;;;;;;;3.30;3.00;;;15.20;99.90;;;;;;5050809;28;20313;-60
2023/06/07 04:53:00;;;;;;;3.72;3.42;;;15.80;99.90;;;;;;5051299;28;20746;-60
2023/06/07 04:55:29;;;;;;;3.42;2.72;;;16.70;99.90;;;;;;5050907;28;20296;-60
2023/06/07 04:57:56;;;;;;;4.20;3.15;;;18.00;99.90;;;;;;5050187;28;20263;-60
2023/06/07 05:00:24;;;;;;;3.58;3.00;;;19.60;99.90;;;;;;5050654;28;20251;-61
2023/06/07 05:02:52;;;;;;;5.10;3.33;;;21.00;99.90;;;;;;5050705;28;20227;-61
2023/06/07 05:05:19;;;;;;;3.03;2.70;;;22.40;99.90;;;;;;5050599;28;20225;-60
2023/06/07 05:07:49;;;;;;;4.63;3.08;;;23.50;99.90;;;;;;5050549;28;20209;-60
2023/06/07 05:10:16;;;;;;;4.57;2.78;;;24.50;99.90;;;;;;5050799;28;20205;-61
2023/06/07 05:12:43;;;;;;;3.10;2.70;;;25.40;99.90;;;;;;5050612;28;20263;-60
2023/06/07 05:15:11;;;;;;;3.75;2.65;;;26.00;97.80;;;;;;5050671;28;20206;-60
2023/06/07 05:17:38;;;;;;;5.57;2.90;;;26.60;95.50;;;;;;5049976;28;20323;-61
2023/06/07 05:20:10;;;;;;;4.28;2.60;;;27.10;94.40;;;;;;5050850;28;20213;-61
2023/06/07 05:22:38;;;;;;;3.33;2.90;;;27.50;92.40;;;;;;5050462;28;20742;-61
2023/06/07 05:25:08;;;;;;;3.10;2.80;;;27.80;91.60;;;;;;5050429;28;20226;-60
2023/06/07 05:27:35;;;;;;;3.05;2.33;;;28.30;90.40;;;;;;5050231;28;20686;-61
2023/06/07 05:30:03;;;;;;;3.53;2.85;;;28.70;87.00;;;;;;5050414;28;20587;-61
2023/06/07 05:32:30;;;;;;;3.10;2.80;;;28.80;86.10;;;;;;5050286;28;20703;-61
2023/06/07 05:34:57;;;;;;;3.40;2.33;;;28.90;85.30;;;;;;5050304;28;20201;-61
2023/06/07 05:37:24;;;;;;;2.90;2.58;;;29.00;84.00;;;;;;5050090;28;20390;-61
2023/06/07 05:39:52;;;;;;;3.40;2.83;;;29.60;82.20;;;;;;5050464;28;20296;-61
2023/06/07 05:42:20;;;;;;;2.58;2.38;;;30.30;79.50;;;;;;5050206;28;20208;-61
2023/06/07 05:44:48;;;;;;;3.72;2.50;;;31.00;77.00;;;;;;5050522;28;20599;-61
2023/06/07 05:47:15;;;;;;;4.78;2.65;;;31.60;74.50;;;;;;5050299;28;20279;-61
2023/06/07 05:49:43;;;;;;;3.00;2.70;;;31.90;72.20;;;;;;5050266;28;20252;-61
2023/06/07 05:52:10;;;;;;;2.63;2.40;;;32.30;71.10;;;;;;5050480;28;20213;-61
2023/06/07 05:54:38;;;;;;;4.00;2.00;;;32.60;69.70;;;;;;5050415;28;20206;-61
2023/06/07 05:57:06;;;;;;;3.92;2.10;;;32.80;69.00;;;;;;5049998;28;20222;-60
2023/06/07 05:59:35;;;;;;;2.35;2.00;;;33.10;68.10;;;;;;5050535;28;20209;-61
2023/06/07 06:02:01;;;;;;;2.30;1.98;;;33.60;66.70;;;;;;5050462;28;20213;-61
2023/06/07 06:04:28;;;;;;;2.30;2.10;;;34.00;65.40;;;;;;5050377;28;20312;-61
2023/06/07 06:06:55;;;;;;;2.33;2.13;;;34.70;63.20;;;;;;5050452;28;20291;-62
2023/06/07 06:09:22;;;;;;;3.40;2.38;;;35.10;61.30;;;;;;5052060;28;20212;-61
2023/06/07 06:11:49;;;;;;;4.68;2.30;;;35.60;59.80;;;;;;5053848;28;20557;-61
2023/06/07 06:14:16;;;;;;;4.82;2.35;;;35.80;58.80;;;;;;5054057;28;20667;-61
2023/06/07 06:16:44;;;;;;;4.75;2.25;;;36.00;58.30;;;;;;5053486;28;20237;-61
2023/06/07 06:19:11;;;;;;;2.67;2.35;;;36.30;57.50;;;;;;5053707;28;20698;-61
2023/06/07 06:21:38;;;;;;;1.92;1.83;;;36.80;57.00;;;;;;5053845;28;20205;-61
2023/06/07 06:24:05;;;;;;;2.08;1.90;;;37.20;55.40;;;;;;5053969;28;20651;-61
2023/06/07 06:26:32;;;;;;;2.33;2.13;;;37.30;55.00;;;;;;5053624;28;20225;-61
2023/06/07 06:28:59;;;;;;;5.88;2.10;;;37.30;54.60;;;;;;5054167;28;20206;-62
2023/06/07 06:31:26;;;;;;;4.40;2.10;;;37.40;54.50;;;;;;5054052;28;20247;-61
2023/06/07 06:33:54;;;;;;;2.60;2.00;;;37.30;54.10;;;;;;5053760;28;20205;-61
2023/06/07 06:36:21;;;;;;;4.22;2.90;;;37.00;54.60;;;;;;5053136;28;20738;-61
2023/06/07 06:38:48;;;;;;;2.85;2.05;;;37.00;54.40;;;;;;5053185;28;20233;-61
2023/06/07 06:41:15;;;;;;;3.88;1.90;;;37.40;54.00;;;;;;5054060;28;20217;-61
2023/06/07 06:43:41;;;;;;;2.65;2.15;;;38.00;53.20;;;;;;5053684;28;20210;-61
2023/06/07 06:46:08;;;;;;;2.42;1.95;;;38.50;52.10;;;;;;5053423;28;20226;-61
2023/06/07 06:48:35;;;;;;;2.83;1.83;;;38.80;51.30;;;;;;5053589;28;20267;-61
2023/06/07 06:51:04;;;;;;;2.13;1.92;;;39.40;50.70;;;;;;5053371;28;20590;-64
2023/06/07 06:53:30;;;;;;;2.85;2.17;;;39.70;49.50;;;;;;5053746;28;20221;-62
2023/06/07 06:55:57;;;;;;;2.55;2.10;;;39.80;49.70;;;;;;5053545;28;20225;-61
2023/06/07 06:58:24;;;;;;;2.88;1.90;;;40.00;49.20;;;;;;5053642;28;20639;-61
2023/06/07 07:00:51;;;;;;;4.18;1.90;;;40.40;48.50;;;;;;5053637;28;20212;-61
2023/06/07 07:03:17;;;;;;;2.10;1.75;;;40.60;48.00;;;;;;5053493;28;20209;-62
2023/06/07 07:05:44;;;;;;;2.20;2.00;;;40.70;47.60;;;;;;5052727;28;20356;-61
2023/06/07 07:08:12;;;;;;;2.03;1.77;;;40.60;47.40;;;;;;5053073;28;20262;-62
2023/06/07 07:10:39;;;;;;;2.20;1.90;;;40.40;47.10;;;;;;5053194;28;20201;-62
2023/06/07 07:13:06;;;;;;;2.40;2.20;;;40.00;47.90;;;;;;5053399;28;20579;-62
2023/06/07 07:15:33;;;;;;;2.10;1.90;;;39.50;48.00;;;;;;5053594;28;20260;-63
2023/06/07 07:17:59;;;;;;;2.08;1.88;;;39.10;48.70;;;;;;5052632;28;20238;-62
2023/06/07 07:20:27;;;;;;;3.05;2.10;;;37.50;50.60;;;;;;5052576;28;20205;-61
2023/06/07 07:22:55;;;;;;;2.13;1.83;;;36.80;52.30;;;;;;5052959;28;20694;-61
2023/06/07 07:25:23;;;;;;;2.38;1.70;;;37.70;50.70;;;;;;5052468;28;20240;-61
2023/06/07 07:27:50;;;;;;;2.08;1.88;;;36.90;51.60;;;;;;5052214;28;20263;-61
2023/06/07 07:30:17;;;;;;;2.85;1.70;;;37.20;51.20;;;;;;5052878;28;20556;-61
2023/06/07 07:32:44;;;;;;;2.65;2.10;;;38.10;50.10;;;;;;5052237;28;20213;-62
2023/06/07 07:35:11;;;;;;;1.98;1.35;;;39.30;48.40;;;;;;5052259;28;20209;-61
2023/06/07 07:37:39;;;;;;;3.28;1.83;;;39.90;47.60;;;;;;5051997;28;20211;-62
2023/06/07 07:40:08;;;;;;;2.40;1.52;;;40.30;46.90;;;;;;5051781;28;20205;-61
2023/06/07 07:42:37;;;;;;;2.70;2.05;;;40.80;46.20;;;;;;5052064;28;20201;-61
2023/06/07 07:45:05;;;;;;;2.38;1.73;;;41.10;45.60;;;;;;5052067;28;20673;-61
2023/06/07 07:47:33;;;;;;;3.95;1.70;;;41.40;45.20;;;;;;5051681;28;20228;-62
2023/06/07 07:50:00;;;;;;;2.85;1.70;;;41.50;45.00;;;;;;5052216;28;20319;-61
2023/06/07 07:52:27;;;;;;;2.28;2.05;;;41.50;44.60;;;;;;5052005;28;20212;-61
2023/06/07 07:54:54;;;;;;;1.80;1.70;;;41.40;44.70;;;;;;5051955;28;20233;-61
2023/06/07 07:57:20;;;;;;;1.90;1.52;;;41.60;44.50;;;;;;5052086;28;20225;-61
2023/06/07 07:59:48;;;;;;;1.83;1.58;;;41.30;44.90;;;;;;5051580;28;20212;-61
2023/06/07 08:02:15;;;;;;;1.40;1.30;;;41.00;45.50;;;;;;5051925;28;20211;-61
2023/06/07 08:04:42;;;;;;;1.55;1.35;;;41.20;44.90;;;;;;5051782;28;20228;-61
2023/06/07 08:07:08;;;;;;;1.73;1.52;;;41.50;44.30;;;;;;5051494;28;20229;-63
2023/06/07 08:09:35;;;;;;;1.17;1.10;;;42.00;43.60;;;;;;5051718;28;20205;-62
2023/06/07 08:12:02;;;;;;;3.28;1.50;;;41.90;43.10;;;;;;5051411;28;20213;-61
2023/06/07 08:14:28;;;;;;;1.50;1.40;;;41.70;43.40;;;;;;5051308;28;20201;-61
2023/06/07 08:16:56;;;;;;;1.50;1.40;;;41.90;43.50;;;;;;5050816;28;20291;-61
2023/06/07 08:19:23;;;;;;;1.52;1.40;;;42.20;43.10;;;;;;5051689;28;20201;-61
2023/06/07 08:21:50;;;;;;;1.65;1.50;;;42.50;42.60;;;;;;5051822;28;20205;-62
2023/06/07 08:24:17;;;;;;;1.70;1.50;;;42.80;42.10;;;;;;5051296;28;20208;-61
2023/06/07 08:26:45;;;;;;;1.65;1.45;;;42.10;42.60;;;;;;5050936;28;20229;-61
2023/06/07 08:29:12;;;;;;;1.63;1.35;;;40.40;44.90;;;;;;5051162;28;20872;-61
2023/06/07 08:31:41;;;;;;;2.35;1.27;;;38.60;46.20;;;;;;5050788;28;20237;-60
2023/06/07 08:34:09;;;;;;;2.85;1.50;;;37.20;48.00;;;;;;5051346;28;20682;-60
2023/06/07 08:36:36;;;;;;;1.70;1.30;;;36.80;48.80;;;;;;5051164;28;20255;-60
2023/06/07 08:39:03;;;;;;;3.80;1.30;;;37.00;48.70;;;;;;5051348;28;20292;-60
2023/06/07 08:41:30;;;;;;;1.48;1.38;;;36.60;49.10;;;;;;5051495;28;20668;-60
2023/06/07 08:43:56;;;;;;;2.05;1.25;;;35.70;50.50;;;;;;5051463;28;20214;-61
2023/06/07 08:46:24;;;;;;;1.42;1.20;;;34.90;51.80;;;;;;5051320;28;20229;-60
2023/06/07 08:48:52;;;;;;;1.65;1.40;;;34.40;52.70;;;;;;5051376;28;20209;-60
2023/06/07 08:51:22;;;;;;;1.40;1.13;;;33.70;53.80;;;;;;5051157;28;20292;-60
2023/06/07 08:53:55;;;;;;;1.35;1.25;;;32.40;55.90;;;;;;5050975;28;20271;-60
2023/06/07 08:56:23;;;;;;;1.20;1.10;;;31.10;58.20;;;;;;5050483;28;20229;-60
2023/06/07 08:58:51;;;;;;;1.55;1.45;;;30.00;60.40;;;;;;5051531;28;20205;-60
2023/06/07 09:01:20;;;;;;;1.42;1.20;;;29.00;62.60;;;;;;5051145;28;20297;-60
2023/06/07 09:03:51;;;;;;;1.40;1.30;;;28.50;64.00;;;;;;5050871;28;20251;-60
2023/06/07 09:06:20;;;;;;;2.55;1.40;;;28.10;65.10;;;;;;5050615;28;20233;-60
2023/06/07 09:08:46;;;;;;;2.40;2.20;;;27.90;65.90;;;;;;5050769;28;20217;-60
2023/06/07 09:11:14;;;;;;;1.50;1.27;;;27.70;66.80;;;;;;5050885;28;20205;-60
2023/06/07 09:13:41;;;;;;;1.42;1.33;;;27.30;68.00;;;;;;5050729;28;20216;-60
2023/06/07 09:16:10;;;;;;;5.60;2.38;;;26.90;69.20;;;;;;5050119;28;20237;-60
2023/06/07 09:18:47;;;;;;;2.28;1.42;;;26.70;70.00;;;;;;5050761;28;20209;-60
2023/06/07 09:21:22;;;;;;;3.30;1.65;;;26.50;70.40;;;;;;5050397;28;20271;-61
2023/06/07 09:23:49;;;;;;;3.53;1.40;;;26.30;71.10;;;;;;5045935;28;20447;-65
2023/06/07 09:26:16;;;;;;;1.25;1.15;;;26.10;71.90;;;;;;5050050;28;20236;-66
2023/06/07 09:28:45;;;;;;;1.20;1.10;;;25.70;72.70;;;;;;5049840;28;20292;-62
2023/06/07 09:31:12;;;;;;;1.65;1.27;;;25.40;74.10;;;;;;5050200;28;20210;-64
2023/06/07 09:33:39;;;;;;;3.08;1.17;;;25.40;74.70;;;;;;5050132;28;20209;-65
2023/06/07 09:36:08;;;;;;;1.27;1.17;;;25.30;74.40;;;;;;5050204;28;20221;-65
2023/06/07 09:38:36;;;;;;;1.15;1.05;;;25.20;75.60;;;;;;5050188;28;20337;-65
2023/06/07 09:41:05;;;;;;;1.10;1.00;;;25.20;74.70;;;;;;5049909;28;20210;-62
2023/06/07 09:43:47;;;;;;;2.10;1.25;;;25.20;74.60;;;;;;5051953;28;20639;-63
2023/06/07 09:46:14;;;;;;;1.02;0.93;;;25.20;75.30;;;;;;5053852;28;20233;-65
2023/06/07 09:48:45;;;;;;;1.02;0.90;;;25.30;74.60;;;;;;5054184;28;20216;-64
2023/06/07 09:51:12;;;;;;;2.53;1.00;;;25.30;74.70;;;;;;5053945;28;20283;-62
2023/06/07 09:53:52;;;;;;;1.33;1.13;;;25.30;75.60;;;;;;5053723;28;20205;-63
2023/06/07 09:56:19;;;;;;;1.95;1.15;;;25.30;75.10;;;;;;5053803;28;20257;-63
2023/06/07 09:58:49;;;;;;;1.48;1.10;;;25.20;74.60;;;;;;5053506;28;20296;-62
2023/06/07 10:01:16;;;;;;;1.75;1.13;;;25.10;75.20;;;;;;5053761;28;20212;-63
2023/06/07 10:03:47;;;;;;;2.05;1.08;;;25.10;74.40;;;;;;5055676;28;20271;-64
2023/06/07 10:06:17;;;;;;;0.77;0.77;;;25.20;73.50;;;;;;5054650;28;20671;-65
2023/06/07 10:08:45;;;;;;;2.75;0.98;;;25.30;73.20;;;;;;5055583;28;20579;-67
2023/06/07 10:11:15;;;;;;;0.95;0.85;;;25.50;72.90;;;;;;5055179;28;20209;-66
2023/06/07 10:13:43;;;;;;;1.13;1.02;;;25.80;72.50;;;;;;5055556;28;20232;-66
2023/06/07 10:16:11;;;;;;;2.22;1.48;;;26.00;72.40;;;;;;5055038;28;20229;-66
2023/06/07 10:18:41;;;;;;;1.92;1.40;;;26.10;72.30;;;;;;5055496;28;20316;-65
2023/06/07 10:21:12;;;;;;;0.98;0.90;;;26.20;71.70;;;;;;5055105;28;20206;-66
2023/06/07 10:23:44;;;;;;;1.65;0.95;;;26.30;71.40;;;;;;5054676;28;20300;-65
2023/06/07 10:26:21;;;;;;;2.03;1.08;;;26.40;71.40;;;;;;5053095;28;20233;-65
2023/06/07 10:28:53;;;;;;;0.70;0.70;;;26.60;70.60;;;;;;5053186;28;20205;-65
2023/06/07 10:31:24;;;;;;;2.33;0.80;;;26.80;70.60;;;;;;5053027;28;20210;-66
2023/06/07 10:33:51;;;;;;;1.60;0.93;;;27.10;68.80;;;;;;5053191;28;20210;-66
2023/06/07 10:36:23;;;;;;;1.77;1.15;;;27.40;67.70;;;;;;5052594;28;20225;-64
2023/06/07 10:38:51;;;;;;;0.70;0.70;;;27.60;68.50;;;;;;5052994;28;20729;-66
2023/06/07 10:41:19;;;;;;;3.28;1.30;;;27.80;67.80;;;;;;5053129;28;20235;-66
2023/06/07 10:43:47;;;;;;;0.90;0.70;;;28.00;68.00;;;;;;5052683;28;20205;-65
2023/06/07 10:46:22;;;;;;;1.35;0.98;;;28.20;66.90;;;;;;5052575;28;20283;-66
2023/06/07 10:48:49;;;;;;;1.58;0.82;;;28.40;64.10;;;;;;5052806;28;20206;-66
2023/06/07 10:51:17;;;;;;;1.45;0.80;;;28.60;63.20;;;;;;5053250;28;20209;-71
2023/06/07 10:53:55;;;;;;;1.50;0.77;;;28.90;62.80;;;;;;5053973;28;20202;-56
2023/06/07 10:56:32;;;;;;;1.13;0.90;;;29.10;61.20;;;;;;5051978;28;20253;-58
2023/06/07 10:59:14;;;;;;;1.80;1.15;;;29.30;63.60;;;;;;5053012;28;20228;-57
2023/06/07 11:01:41;;;;;;;1.83;1.27;;;29.40;64.00;;;;;;5053313;28;20263;-57
2023/06/07 11:04:08;;;;;;;1.38;0.90;;;29.20;65.90;;;;;;5053021;28;20611;-57
2023/06/07 11:07:13;;;;;;;1.95;0.80;;;28.70;65.60;;;;;;5052700;28;20312;-57
2023/06/07 11:09:41;;;;;;;1.77;0.90;;;28.30;66.00;;;;;;5053160;28;20674;-58
2023/06/07 11:12:09;;;;;;;1.00;0.80;;;27.90;66.90;;;;;;5052926;28;20675;-58
2023/06/07 11:14:35;;;;;;;1.83;1.23;;;27.70;66.70;;;;;;5053215;28;20201;-58
2023/06/07 11:17:04;;;;;;;1.77;1.00;;;27.70;67.30;;;;;;5052470;28;20233;-58
2023/06/07 11:19:57;;;;;;;0.90;0.90;;;27.70;66.20;;;;;;5052877;28;20216;-57
2023/06/07 11:22:24;;;;;;;1.85;1.02;;;27.80;66.20;;;;;;5052738;28;20208;-57
2023/06/07 11:24:51;;;;;;;1.00;0.90;;;27.90;67.70;;;;;;5052789;28;20275;-57
2023/06/07 11:27:21;;;;;;;0.88;0.88;;;27.90;67.90;;;;;;5052010;28;20237;-58
2023/06/07 11:29:48;;;;;;;2.50;0.90;;;27.70;67.70;;;;;;5052345;28;20206;-56
2023/06/07 11:32:15;;;;;;;0.85;0.77;;;27.70;66.40;;;;;;5052278;28;20202;-57
2023/06/07 11:34:42;;;;;;;1.00;0.88;;;27.70;66.00;;;;;;5052452;28;20213;-57
2023/06/07 11:37:16;;;;;;;0.90;0.90;;;27.60;66.90;;;;;;5052402;28;20225;-56
2023/06/07 11:39:43;;;;;;;2.60;1.00;;;27.70;66.70;;;;;;5052673;28;20221;-56
2023/06/07 11:42:10;;;;;;;1.08;0.90;;;27.80;65.00;;;;;;5052465;28;20202;-57
2023/06/07 11:44:39;;;;;;;0.93;0.85;;;28.00;65.00;;;;;;5052342;28;20208;-57
2023/06/07 11:47:08;;;;;;;1.20;0.90;;;28.10;64.10;;;;;;5051903;28;20550;-56
2023/06/07 11:49:38;;;;;;;1.00;0.60;;;28.10;64.20;;;;;;5052459;28;20205;-56
2023/06/07 11:52:06;;;;;;;1.85;1.17;;;28.20;64.00;;;;;;5052311;28;20292;-56
2023/06/07 11:54:34;;;;;;;2.28;1.00;;;28.30;63.70;;;;;;5052081;28;20507;-57
2023/06/07 11:57:02;;;;;;;1.17;0.88;;;28.50;63.50;;;;;;5051462;28;20225;-57
2023/06/07 11:59:29;;;;;;;1.27;0.98;;;28.80;63.50;;;;;;5051828;28;20206;-57
2023/06/07 12:01:58;;;;;;;1.02;0.93;;;29.00;63.20;;;;;;5051953;28;20206;-57
2023/06/07 12:04:25;;;;;;;1.17;1.00;;;29.00;63.90;;;;;;5051872;28;20233;-57
2023/06/07 12:06:52;;;;;;;1.55;1.10;;;29.00;64.60;;;;;;5050419;28;20343;-57
2023/06/07 12:09:22;;;;;;;2.60;1.02;;;29.00;64.50;;;;;;5052616;28;20205;-57
2023/06/07 12:11:49;;;;;;;1.83;1.27;;;29.20;64.70;;;;;;5052752;28;20640;-56
2023/06/07 12:14:32;;;;;;;1.73;1.30;;;29.20;65.20;;;;;;5053845;28;20209;-57
2023/06/07 12:17:01;;;;;;;1.40;1.30;;;29.30;65.10;;;;;;5052722;28;20241;-56
2023/06/07 12:19:29;;;;;;;2.45;1.30;;;29.20;64.90;;;;;;5053051;28;20209;-57
2023/06/07 12:22:03;;;;;;;2.55;1.20;;;29.00;65.00;;;;;;5053082;28;20584;-56
2023/06/07 12:24:30;;;;;;;2.30;1.05;;;28.90;64.90;;;;;;5052922;28;20387;-56
2023/06/07 12:26:58;;;;;;;1.33;1.05;;;28.80;63.80;;;;;;5052362;28;20279;-56
2023/06/07 12:29:29;;;;;;;1.52;1.00;;;28.70;63.00;;;;;;5053023;28;20205;-56
2023/06/07 12:31:57;;;;;;;2.00;0.90;;;28.60;63.40;;;;;;5052837;28;20232;-56
2023/06/07 12:34:30;;;;;;;1.00;1.00;;;28.50;64.10;;;;;;5052680;28;20403;-56
2023/06/07 12:36:56;;;;;;;1.27;1.17;;;28.30;65.70;;;;;;5052155;28;20228;-56
2023/06/07 12:39:28;;;;;;;2.45;1.13;;;28.20;66.00;;;;;;5052610;28;20216;-56
2023/06/07 12:41:55;;;;;;;1.83;1.30;;;28.10;65.80;;;;;;5052968;28;20243;-55
2023/06/07 12:44:23;;;;;;;2.08;1.17;;;28.00;66.30;;;;;;5053652;28;20213;-56
2023/06/07 12:46:50;;;;;;;1.58;1.00;;;27.50;67.00;;;;;;5053454;28;20580;-56
2023/06/07 12:49:16;;;;;;;1.50;1.00;;;27.40;66.50;;;;;;5053043;28;20283;-56
2023/06/07 12:51:45;;;;;;;1.67;1.15;;;27.40;66.30;;;;;;5053236;28;20205;-57
2023/06/07 12:54:12;;;;;;;1.30;1.20;;;27.40;67.10;;;;;;5052472;28;20220;-56